createdAt,value
2018-05-16T00:01:19.349Z,93623.92
2018-05-16T00:03:47.988Z,93616.57
2018-05-16T00:06:16.829Z,93603.22
2018-05-16T00:08:45.509Z,93603.84
2018-05-16T00:11:13.674Z,93601.02
2018-05-16T00:13:42.328Z,93600.21
2018-05-16T00:16:11.128Z,93603.03
2018-05-16T00:18:39.937Z,93600.22
2018-05-16T00:21:08.719Z,93604.25
2018-05-16T00:23:37.348Z,93601.64
2018-05-16T00:26:06.323Z,93599.00
2018-05-16T00:28:35.020Z,93596.98
2018-05-16T00:31:03.838Z,93598.41
2018-05-16T00:33:32.829Z,93604.06
2018-05-16T00:36:01.421Z,93599.41
2018-05-16T00:38:30.065Z,93600.61
2018-05-16T00:40:58.940Z,93594.57
2018-05-16T00:43:27.589Z,93601.23
2018-05-16T00:45:56.827Z,93597.28
2018-05-16T00:48:25.456Z,93597.98
2018-05-16T00:51:00.541Z,93594.45
2018-05-16T00:53:28.668Z,93595.97
2018-05-16T00:55:57.307Z,93594.66
2018-05-16T00:58:26.219Z,93595.77
2018-05-16T01:00:55.269Z,93601.22
2018-05-16T01:03:23.909Z,93594.14
2018-05-16T01:05:52.685Z,93587.69
2018-05-16T01:08:21.513Z,93588.11
2018-05-16T01:10:50.294Z,93587.20
2018-05-16T01:13:19.067Z,93590.20
2018-05-16T01:15:47.708Z,93584.06
2018-05-16T01:18:16.358Z,93578.42
2018-05-16T01:20:44.849Z,93575.59
2018-05-16T01:23:13.526Z,93572.44
2018-05-16T01:25:42.389Z,93566.80
2018-05-16T01:28:10.773Z,93571.34
2018-05-16T01:30:39.280Z,93569.52
2018-05-16T01:33:07.792Z,93562.56
2018-05-16T01:35:36.323Z,93561.66
2018-05-16T01:38:05.189Z,93562.97
2018-05-16T01:40:33.729Z,93555.78
2018-05-16T01:43:02.531Z,93555.58
2018-05-16T01:45:30.988Z,93556.20
2018-05-16T01:47:59.999Z,93558.32
2018-05-16T01:50:28.303Z,93557.82
2018-05-16T01:52:56.760Z,93559.22
2018-05-16T01:55:25.239Z,93557.50
2018-05-16T01:57:54.228Z,93558.41
2018-05-16T02:00:22.712Z,93558.42
2018-05-16T02:02:51.616Z,93552.77
2018-05-16T02:05:20.221Z,93548.91
2018-05-16T02:07:49.001Z,93546.69
2018-05-16T02:10:17.857Z,93541.14
2018-05-16T02:12:46.510Z,93544.89
2018-05-16T02:15:15.037Z,93543.69
2018-05-16T02:17:43.821Z,93537.02
2018-05-16T02:20:12.384Z,93532.18
2018-05-16T02:22:40.725Z,93535.61
2018-05-16T02:25:09.212Z,93528.45
2018-05-16T02:27:37.905Z,93532.56
2018-05-16T02:30:07.239Z,93538.23
2018-05-16T02:32:35.733Z,93536.70
2018-05-16T02:35:04.099Z,93540.88
2018-05-16T02:37:33.023Z,93538.64
2018-05-16T02:40:01.484Z,93537.42
2018-05-16T02:42:30.276Z,93541.67
2018-05-16T02:44:58.908Z,93535.60
2018-05-16T02:47:27.635Z,93537.23
2018-05-16T02:49:56.242Z,93539.55
2018-05-16T02:52:24.793Z,93533.79
2018-05-16T02:54:53.614Z,93527.84
2018-05-16T02:57:22.359Z,93527.83
2018-05-16T02:59:50.944Z,93531.06
2018-05-16T03:02:19.757Z,93535.41
2018-05-16T03:04:48.401Z,93532.88
2018-05-16T03:07:16.776Z,93526.64
2018-05-16T03:09:45.361Z,93524.80
2018-05-16T03:12:13.965Z,93525.13
2018-05-16T03:14:42.720Z,93524.91
2018-05-16T03:17:11.314Z,93524.22
2018-05-16T03:19:40.177Z,93519.06
2018-05-16T03:22:08.717Z,93518.45
2018-05-16T03:24:37.689Z,93513.02
2018-05-16T03:27:06.184Z,93512.78
2018-05-16T03:29:34.769Z,93517.45
2018-05-16T03:32:03.473Z,93518.45
2018-05-16T03:34:32.243Z,93518.77
2018-05-16T03:37:00.957Z,93518.27
2018-05-16T03:39:30.022Z,93529.95
2018-05-16T03:41:58.552Z,93523.99
2018-05-16T03:44:27.517Z,93525.11
2018-05-16T03:46:56.057Z,93522.90
2018-05-16T03:49:24.568Z,93524.70
2018-05-16T03:51:54.095Z,93524.20
2018-05-16T03:54:22.776Z,93525.00
2018-05-16T03:56:51.168Z,93523.41
2018-05-16T03:59:26.045Z,93523.70
2018-05-16T04:02:01.052Z,93524.41
2018-05-16T04:04:30.181Z,93522.87
2018-05-16T04:06:58.867Z,93530.45
2018-05-16T04:09:27.301Z,93527.08
2018-05-16T04:11:55.838Z,93529.73
2018-05-16T04:14:24.423Z,93527.94
2018-05-16T04:16:52.959Z,93530.56
2018-05-16T04:19:21.276Z,93537.02
2018-05-16T04:21:50.777Z,93534.00
2018-05-16T04:24:19.569Z,93539.55
2018-05-16T04:26:48.161Z,93546.09
2018-05-16T04:29:16.814Z,93545.69
2018-05-16T04:31:45.596Z,93544.17
2018-05-16T04:34:14.277Z,93545.50
2018-05-16T04:36:42.973Z,93545.48
2018-05-16T04:39:11.465Z,93540.86
2018-05-16T04:41:40.083Z,93542.86
2018-05-16T04:44:09.352Z,93544.08
2018-05-16T04:46:37.857Z,93546.52
2018-05-16T04:49:06.662Z,93556.60
2018-05-16T04:51:35.145Z,93556.20
2018-05-16T04:54:03.661Z,93556.82
2018-05-16T04:56:32.143Z,93557.83
2018-05-16T04:59:00.466Z,93552.78
2018-05-16T05:01:29.029Z,93552.36
2018-05-16T05:03:57.729Z,93550.55
2018-05-16T05:06:26.034Z,93548.30
2018-05-16T05:08:54.635Z,93548.09
2018-05-16T05:11:23.437Z,93540.96
2018-05-16T05:13:51.973Z,93541.26
2018-05-16T05:16:20.551Z,93536.91
2018-05-16T05:18:49.081Z,93535.98
2018-05-16T05:21:17.459Z,93527.71
2018-05-16T05:23:46.070Z,93527.64
2018-05-16T05:26:14.995Z,93529.95
2018-05-16T05:28:43.456Z,93531.78
2018-05-16T05:31:12.229Z,93533.17
2018-05-16T05:33:40.948Z,93528.13
2018-05-16T05:36:09.764Z,93525.30
2018-05-16T05:38:38.130Z,93525.72
2018-05-16T05:41:07.442Z,93524.50
2018-05-16T05:43:36.238Z,93530.14
2018-05-16T05:46:04.560Z,93532.86
2018-05-16T05:48:33.385Z,93531.56
2018-05-16T05:51:02.521Z,93542.88
2018-05-16T05:53:31.137Z,93544.47
2018-05-16T05:56:00.017Z,93538.92
2018-05-16T05:58:28.497Z,93535.80
2018-05-16T06:00:57.141Z,93534.97
2018-05-16T06:03:25.913Z,93537.60
2018-05-16T06:05:54.538Z,93540.13
2018-05-16T06:08:23.253Z,93544.16
2018-05-16T06:10:51.750Z,93539.61
2018-05-16T06:13:21.016Z,93540.03
2018-05-16T06:15:49.513Z,93538.39
2018-05-16T06:18:18.249Z,93540.91
2018-05-16T06:20:46.877Z,93537.56
2018-05-16T06:23:15.536Z,93535.53
2018-05-16T06:25:44.348Z,93539.09
2018-05-16T06:28:12.814Z,93534.92
2018-05-16T06:30:41.597Z,93538.95
2018-05-16T06:33:10.010Z,93538.83
2018-05-16T06:35:38.562Z,93539.25
2018-05-16T06:38:06.939Z,93531.52
2018-05-16T06:40:35.413Z,93534.59
2018-05-16T06:43:03.568Z,93539.05
2018-05-16T06:45:31.964Z,93529.25
2018-05-16T06:48:00.570Z,93537.52
2018-05-16T06:50:29.120Z,93541.06
2018-05-16T06:52:58.118Z,93541.39
2018-05-16T06:55:26.583Z,93535.73
2018-05-16T06:57:55.194Z,93539.17
2018-05-16T07:00:23.729Z,93540.69
2018-05-16T07:02:52.145Z,93541.20
2018-05-16T07:05:20.700Z,93545.41
2018-05-16T07:07:49.317Z,93546.94
2018-05-16T07:10:17.997Z,93542.40
2018-05-16T07:12:46.246Z,93547.92
2018-05-16T07:15:14.741Z,93554.72
2018-05-16T07:17:42.981Z,93552.08
2018-05-16T07:20:11.477Z,93556.52
2018-05-16T07:22:39.960Z,93550.25
2018-05-16T07:25:08.192Z,93543.16
2018-05-16T07:27:36.661Z,93539.70
2018-05-16T07:30:04.944Z,93541.09
2018-05-16T07:32:33.487Z,93540.44
2018-05-16T07:35:02.050Z,93546.78
2018-05-16T07:37:30.723Z,93540.31
2018-05-16T07:39:59.448Z,93540.52
2018-05-16T07:42:27.807Z,93545.27
2018-05-16T07:44:56.207Z,93544.50
2018-05-16T07:47:24.699Z,93545.89
2018-05-16T07:49:53.337Z,93543.97
2018-05-16T07:52:21.783Z,93542.48
2018-05-16T07:54:50.534Z,93539.95
2018-05-16T07:57:19.443Z,93541.77
2018-05-16T07:59:47.746Z,93541.69
2018-05-16T08:02:16.299Z,93542.09
2018-05-16T08:04:44.973Z,93547.05
2018-05-16T08:07:13.403Z,93542.94
2018-05-16T08:09:42.215Z,93545.20
2018-05-16T08:12:10.769Z,93545.53
2018-05-16T08:14:39.124Z,93547.23
2018-05-16T08:17:07.506Z,93544.66
2018-05-16T08:19:36.221Z,93546.85
2018-05-16T08:22:04.563Z,93546.59
2018-05-16T08:24:32.918Z,93539.21
2018-05-16T08:27:01.574Z,93538.60
2018-05-16T08:29:30.111Z,93539.44
2018-05-16T08:31:58.778Z,93540.64
2018-05-16T08:34:27.489Z,93546.27
2018-05-16T08:36:56.152Z,93541.56
2018-05-16T08:39:24.689Z,93549.55
2018-05-16T08:41:53.074Z,93544.63
2018-05-16T08:44:21.427Z,93543.40
2018-05-16T08:46:50.130Z,93549.34
2018-05-16T08:49:18.714Z,93549.38
2018-05-16T08:51:47.054Z,93550.91
2018-05-16T08:54:15.747Z,93562.94
2018-05-16T08:56:44.426Z,93560.07
2018-05-16T08:59:12.644Z,93561.42
2018-05-16T09:01:41.144Z,93560.58
2018-05-16T09:04:10.267Z,93566.48
2018-05-16T09:06:39.078Z,93574.98
2018-05-16T09:09:07.832Z,93574.45
2018-05-16T09:11:36.544Z,93573.98
2018-05-16T09:14:05.004Z,93571.75
2018-05-16T09:16:33.591Z,93581.68
2018-05-16T09:19:02.486Z,93577.75
2018-05-16T09:21:31.190Z,93572.89
2018-05-16T09:23:59.826Z,93572.20
2018-05-16T09:26:28.619Z,93580.73
2018-05-16T09:28:57.260Z,93579.03
2018-05-16T09:31:25.907Z,93574.05
2018-05-16T09:33:54.448Z,93582.12
2018-05-16T09:36:22.853Z,93587.03
2018-05-16T09:38:51.338Z,93582.31
2018-05-16T09:41:19.763Z,93582.57
2018-05-16T09:43:48.223Z,93577.27
2018-05-16T09:46:16.667Z,93584.13
2018-05-16T09:48:45.214Z,93589.83
2018-05-16T09:51:13.936Z,93584.64
2018-05-16T09:53:42.653Z,93589.61
2018-05-16T09:56:11.323Z,93589.15
2018-05-16T09:58:39.968Z,93594.97
2018-05-16T10:01:08.287Z,93595.71
2018-05-16T10:03:36.808Z,93602.14
2018-05-16T10:06:05.303Z,93601.18
2018-05-16T10:08:33.929Z,93605.43
2018-05-16T10:11:02.413Z,93607.27
2018-05-16T10:13:30.937Z,93606.80
2018-05-16T10:15:59.488Z,93607.20
2018-05-16T10:18:28.018Z,93610.80
2018-05-16T10:20:56.487Z,93612.55
2018-05-16T10:23:25.002Z,93612.13
2018-05-16T10:25:53.687Z,93615.43
2018-05-16T10:28:22.176Z,93616.00
2018-05-16T10:30:50.615Z,93618.17
2018-05-16T10:33:19.256Z,93619.34
2018-05-16T10:35:47.750Z,93620.05
2018-05-16T10:38:18.234Z,93626.45
2018-05-16T10:40:48.719Z,93628.27
2018-05-16T10:43:19.200Z,93623.85
2018-05-16T10:45:47.538Z,93627.11
2018-05-16T10:48:20.648Z,93626.50
2018-05-16T10:50:49.007Z,93615.06
2018-05-16T10:53:19.335Z,93623.13
2018-05-16T10:55:47.739Z,93616.73
2018-05-16T10:58:16.091Z,93617.67
2018-05-16T11:00:44.461Z,93619.66
2018-05-16T11:03:12.827Z,93615.81
2018-05-16T11:05:43.414Z,93622.67
2018-05-16T11:08:11.818Z,93638.06
2018-05-16T11:10:42.415Z,93639.44
2018-05-16T11:13:12.931Z,93640.98
2018-05-16T11:15:43.580Z,93645.73
2018-05-16T11:18:11.930Z,93652.04
2018-05-16T11:20:42.558Z,93649.94
2018-05-16T11:23:10.956Z,93655.08
2018-05-16T11:25:41.467Z,93657.41
2018-05-16T11:28:09.814Z,93666.66
2018-05-16T11:30:38.292Z,93657.10
2018-05-16T11:33:06.654Z,93655.14
2018-05-16T11:35:35.039Z,93656.98
2018-05-16T11:38:05.555Z,93649.84
2018-05-16T11:40:36.187Z,93649.80
2018-05-16T11:43:04.879Z,93651.09
2018-05-16T11:45:33.223Z,93652.76
2018-05-16T11:48:03.671Z,93647.19
2018-05-16T11:50:34.196Z,93648.70
2018-05-16T11:53:02.572Z,93649.20
2018-05-16T11:55:30.979Z,93650.06
2018-05-16T11:57:59.654Z,93644.22
2018-05-16T12:00:30.309Z,93645.56
2018-05-16T12:02:58.709Z,93650.04
2018-05-16T12:05:27.119Z,93648.36
2018-05-16T12:07:55.482Z,93646.82
2018-05-16T12:10:23.856Z,93645.06
2018-05-16T12:12:52.280Z,93650.02
2018-05-16T12:15:20.670Z,93653.25
2018-05-16T12:17:49.037Z,93651.19
2018-05-16T12:20:17.394Z,93653.88
2018-05-16T12:22:45.779Z,93651.79
2018-05-16T12:25:14.371Z,93651.34
2018-05-16T12:27:49.323Z,93646.31
2018-05-16T12:30:20.143Z,93655.28
2018-05-16T12:32:48.505Z,93651.16
2018-05-16T12:35:16.891Z,93654.96
2018-05-16T12:37:45.704Z,93649.20
2018-05-16T12:40:14.071Z,93657.78
2018-05-16T12:42:50.921Z,93657.22
2018-05-16T12:45:23.555Z,93658.97
2018-05-16T12:47:51.951Z,93656.75
2018-05-16T12:50:24.476Z,93656.62
2018-05-16T12:52:52.863Z,93656.41
2018-05-16T12:55:23.331Z,93653.78
2018-05-16T12:57:53.987Z,93657.38
2018-05-16T13:00:24.339Z,93656.41
2018-05-16T13:02:52.703Z,93657.11
2018-05-16T13:05:21.068Z,93655.73
2018-05-16T13:07:53.487Z,93650.16
2018-05-16T13:10:22.114Z,93657.54
2018-05-16T13:12:50.490Z,93661.31
2018-05-16T13:15:21.087Z,93662.87
2018-05-16T13:17:49.562Z,93660.61
2018-05-16T13:20:20.060Z,93658.43
2018-05-16T13:22:50.641Z,93664.92
2018-05-16T13:25:23.408Z,93667.37
2018-05-16T13:27:51.819Z,93667.70
2018-05-16T13:30:20.228Z,93672.66
2018-05-16T13:32:48.595Z,93674.30
2018-05-16T13:35:19.507Z,93667.59
2018-05-16T13:37:50.111Z,93674.87
2018-05-16T13:40:21.075Z,93675.17
2018-05-16T13:42:49.459Z,93681.63
2018-05-16T13:45:22.253Z,93679.92
2018-05-16T13:47:50.631Z,93682.20
2018-05-16T13:50:18.991Z,93680.05
2018-05-16T13:52:49.570Z,93673.81
2018-05-16T13:55:18.246Z,93678.30
2018-05-16T13:57:46.604Z,93680.55
2018-05-16T14:00:17.018Z,93678.05
2018-05-16T14:02:45.463Z,93673.70
2018-05-16T14:05:13.872Z,93671.50
2018-05-16T14:07:42.235Z,93668.25
2018-05-16T14:10:10.627Z,93667.35
2018-05-16T14:12:39.055Z,93666.23
2018-05-16T14:15:09.179Z,93672.37
2018-05-16T14:17:37.536Z,93673.38
2018-05-16T14:20:08.149Z,93669.02
2018-05-16T14:22:38.606Z,93663.17
2018-05-16T14:25:07.083Z,93671.12
2018-05-16T14:27:35.471Z,93663.25
2018-05-16T14:30:03.899Z,93664.43
2018-05-16T14:32:34.421Z,93666.28
2018-05-16T14:35:02.827Z,93664.81
2018-05-16T14:37:31.197Z,93664.63
2018-05-16T14:39:59.603Z,93667.55
2018-05-16T14:42:27.978Z,93668.80
2018-05-16T14:44:56.332Z,93671.47
2018-05-16T14:47:24.727Z,93663.95
2018-05-16T14:49:53.095Z,93667.00
2018-05-16T14:52:23.547Z,93669.94
2018-05-16T14:54:52.148Z,93668.94
2018-05-16T14:57:22.331Z,93668.45
2018-05-16T14:59:52.762Z,93670.10
2018-05-16T15:02:21.151Z,93672.75
2018-05-16T15:04:49.522Z,93677.10
2018-05-16T15:07:20.228Z,93675.13
2018-05-16T15:09:48.623Z,93677.03
2018-05-16T15:12:17.015Z,93685.12
2018-05-16T15:14:45.480Z,93685.64
2018-05-16T15:17:13.797Z,93686.70
2018-05-16T15:19:42.466Z,93689.06
2018-05-16T15:22:10.828Z,93695.19
2018-05-16T15:24:39.203Z,93700.52
2018-05-16T15:27:09.783Z,93702.08
2018-05-16T15:29:38.187Z,93702.56
2018-05-16T15:32:06.514Z,93701.41
2018-05-16T15:34:37.075Z,93704.02
2018-05-16T15:37:09.537Z,93706.73
2018-05-16T15:39:39.941Z,93705.98
2018-05-16T15:42:12.060Z,93703.95
2018-05-16T15:44:42.591Z,93702.11
2018-05-16T15:47:10.976Z,93706.70
2018-05-16T15:49:39.327Z,93703.47
2018-05-16T15:52:09.862Z,93700.63
2018-05-16T15:54:38.272Z,93705.44
2018-05-16T15:57:06.724Z,93702.41
2018-05-16T15:59:35.173Z,93696.70
2018-05-16T16:02:05.688Z,93691.66
2018-05-16T16:04:34.074Z,93683.41
2018-05-16T16:07:04.567Z,93684.81
2018-05-16T16:09:34.814Z,93685.94
2018-05-16T16:12:03.191Z,93687.86
2018-05-16T16:14:31.532Z,93682.71
2018-05-16T16:16:59.971Z,93682.20
2018-05-16T16:19:28.331Z,93681.80
2018-05-16T16:21:56.709Z,93688.58
2018-05-16T16:24:25.143Z,93689.72
2018-05-16T16:26:53.765Z,93698.54
2018-05-16T16:29:22.180Z,93699.80
2018-05-16T16:31:50.575Z,93702.00
2018-05-16T16:34:19.061Z,93701.19
2018-05-16T16:36:47.368Z,93709.69
2018-05-16T16:39:20.051Z,93711.61
2018-05-16T16:41:48.420Z,93713.14
2018-05-16T16:44:17.021Z,93713.34
2018-05-16T16:46:47.549Z,93715.88
2018-05-16T16:49:16.075Z,93712.63
2018-05-16T16:51:44.463Z,93718.69
2018-05-16T16:54:16.538Z,93718.36
2018-05-16T16:56:45.042Z,93721.61
2018-05-16T16:59:17.846Z,93720.48
2018-05-16T17:01:46.557Z,93718.77
2018-05-16T17:04:17.083Z,93724.34
2018-05-16T17:06:45.514Z,93733.70
2018-05-16T17:09:14.316Z,93733.55
2018-05-16T17:11:44.786Z,93734.34
2018-05-16T17:14:15.270Z,93736.29
2018-05-16T17:16:43.663Z,93732.88
2018-05-16T17:19:14.172Z,93732.67
2018-05-16T17:21:42.601Z,93734.13
2018-05-16T17:24:11.101Z,93733.06
2018-05-16T17:26:39.423Z,93727.39
2018-05-16T17:29:09.799Z,93736.67
2018-05-16T17:31:38.216Z,93734.91
2018-05-16T17:34:08.714Z,93730.47
2018-05-16T17:36:41.616Z,93730.48
2018-05-16T17:39:10.038Z,93725.20
2018-05-16T17:41:38.473Z,93725.30
2018-05-16T17:44:06.849Z,93719.83
2018-05-16T17:46:35.239Z,93726.44
2018-05-16T17:49:03.632Z,93724.09
2018-05-16T17:51:36.230Z,93723.38
2018-05-16T17:54:08.584Z,93726.78
2018-05-16T17:56:39.210Z,93726.92
2018-05-16T17:59:07.593Z,93719.89
2018-05-16T18:01:36.019Z,93719.41
2018-05-16T18:04:04.439Z,93727.16
2018-05-16T18:06:32.886Z,93714.88
2018-05-16T18:09:01.253Z,93710.42
2018-05-16T18:11:29.672Z,93712.27
2018-05-16T18:14:06.368Z,93715.58
2018-05-16T18:16:41.083Z,93708.41
2018-05-16T18:19:09.970Z,93715.98
2018-05-16T18:21:38.489Z,93718.02
2018-05-16T18:24:09.219Z,93717.84
2018-05-16T18:26:42.133Z,93723.58
2018-05-16T18:29:10.649Z,93722.64
2018-05-16T18:31:41.369Z,93731.92
2018-05-16T18:34:14.293Z,93740.50
2018-05-16T18:36:42.748Z,93749.88
2018-05-16T18:39:11.135Z,93748.52
2018-05-16T18:41:39.964Z,93750.53
2018-05-16T18:44:12.865Z,93747.75
2018-05-16T18:46:41.289Z,93750.94
2018-05-16T18:49:09.836Z,93749.45
2018-05-16T18:51:38.133Z,93752.79
2018-05-16T18:54:06.519Z,93752.09
2018-05-16T18:56:34.931Z,93764.38
2018-05-16T18:59:03.316Z,93768.84
2018-05-16T19:01:35.791Z,93770.50
2018-05-16T19:04:04.202Z,93772.34
2018-05-16T19:06:35.279Z,93772.44
2018-05-16T19:09:05.664Z,93771.13
2018-05-16T19:11:34.092Z,93781.47
2018-05-16T19:14:04.647Z,93782.05
2018-05-16T19:16:35.244Z,93785.92
2018-05-16T19:19:03.639Z,93787.53
2018-05-16T19:21:32.044Z,93790.58
2018-05-16T19:24:02.765Z,93789.16
2018-05-16T19:26:31.177Z,93791.01
2018-05-16T19:28:59.542Z,93794.74
2018-05-16T19:31:30.204Z,93790.59
2018-05-16T19:33:58.656Z,93800.50
2018-05-16T19:36:27.111Z,93800.41
2018-05-16T19:38:55.617Z,93799.91
2018-05-16T19:41:24.007Z,93797.29
2018-05-16T19:43:52.435Z,93807.00
2018-05-16T19:46:20.854Z,93811.84
2018-05-16T19:48:51.511Z,93814.47
2018-05-16T19:51:20.084Z,93813.84
2018-05-16T19:53:50.440Z,93818.20
2018-05-16T19:56:18.824Z,93810.81
2018-05-16T19:58:49.628Z,93812.36
2018-05-16T20:01:18.120Z,93813.25
2018-05-16T20:03:48.719Z,93824.48
2018-05-16T20:06:17.107Z,93830.03
2018-05-16T20:08:45.500Z,93819.34
2018-05-16T20:11:13.925Z,93825.50
2018-05-16T20:13:42.266Z,93828.63
2018-05-16T20:16:10.668Z,93833.67
2018-05-16T20:18:39.056Z,93822.77
2018-05-16T20:21:07.452Z,93826.00
2018-05-16T20:23:36.171Z,93822.77
2018-05-16T20:26:06.799Z,93828.02
2018-05-16T20:28:37.646Z,93827.63
2018-05-16T20:31:06.135Z,93830.73
2018-05-16T20:33:36.786Z,93839.55
2018-05-16T20:36:05.222Z,93836.11
2018-05-16T20:38:33.661Z,93843.73
2018-05-16T20:41:02.014Z,93839.34
2018-05-16T20:43:30.416Z,93839.33
2018-05-16T20:45:58.844Z,93836.66
2018-05-16T20:48:27.671Z,93835.23
2018-05-16T20:50:56.067Z,93848.73
2018-05-16T20:53:24.434Z,93852.07
2018-05-16T20:55:52.907Z,93853.45
2018-05-16T20:58:25.713Z,93852.79
2018-05-16T21:00:56.377Z,93847.13
2018-05-16T21:03:24.767Z,93854.20
2018-05-16T21:05:55.426Z,93857.45
2018-05-16T21:08:23.869Z,93859.39
2018-05-16T21:10:54.483Z,93865.33
2018-05-16T21:13:22.934Z,93864.33
2018-05-16T21:15:51.344Z,93866.33
2018-05-16T21:18:19.735Z,93868.14
2018-05-16T21:20:50.499Z,93867.77
2018-05-16T21:23:18.900Z,93876.34
2018-05-16T21:25:47.259Z,93870.28
2018-05-16T21:28:15.707Z,93877.88
2018-05-16T21:30:44.062Z,93874.66
2018-05-16T21:33:12.480Z,93880.02
2018-05-16T21:35:40.891Z,93877.29
2018-05-16T21:38:09.323Z,93877.69
2018-05-16T21:40:37.696Z,93874.62
2018-05-16T21:43:06.476Z,93876.55
2018-05-16T21:45:34.838Z,93875.73
2018-05-16T21:48:03.219Z,93872.48
2018-05-16T21:50:33.947Z,93879.58
2018-05-16T21:53:04.599Z,93880.16
2018-05-16T21:55:32.984Z,93876.07
2018-05-16T21:58:01.344Z,93881.83
2018-05-16T22:00:32.023Z,93885.16
2018-05-16T22:03:00.439Z,93886.95
2018-05-16T22:05:31.147Z,93883.89
2018-05-16T22:07:59.543Z,93882.07
2018-05-16T22:10:27.893Z,93879.68
2018-05-16T22:12:56.279Z,93874.13
2018-05-16T22:15:24.660Z,93874.81
2018-05-16T22:17:53.024Z,93867.13
2018-05-16T22:20:23.690Z,93871.25
2018-05-16T22:22:52.090Z,93876.57
2018-05-16T22:25:20.419Z,93872.87
2018-05-16T22:27:48.810Z,93870.59
2018-05-16T22:30:17.076Z,93865.57
2018-05-16T22:32:51.771Z,93871.30
2018-05-16T22:35:26.194Z,93865.20
2018-05-16T22:38:00.824Z,93871.17
2018-05-16T22:40:35.531Z,93865.36
2018-05-16T22:43:06.078Z,93865.67
2018-05-16T22:45:37.735Z,93861.03
2018-05-16T22:48:06.202Z,93867.08
2018-05-16T22:50:34.579Z,93868.86
2018-05-16T22:53:02.955Z,93868.91
2018-05-16T22:55:33.792Z,93868.13
2018-05-16T22:58:02.167Z,93856.02
2018-05-16T23:00:30.549Z,93857.59
2018-05-16T23:02:58.829Z,93848.56
2018-05-16T23:05:27.187Z,93847.66
2018-05-16T23:07:55.508Z,93849.20
2018-05-16T23:10:25.984Z,93842.16
2018-05-16T23:12:56.624Z,93836.82
2018-05-16T23:15:24.988Z,93835.82
2018-05-16T23:17:55.596Z,93828.78
2018-05-16T23:20:23.986Z,93837.47
2018-05-16T23:22:54.637Z,93847.07
2018-05-16T23:25:22.984Z,93845.84
2018-05-16T23:27:51.359Z,93843.34
2018-05-16T23:30:22.875Z,93846.70
2018-05-16T23:32:51.300Z,93847.88
2018-05-16T23:35:19.667Z,93849.05
2018-05-16T23:37:48.076Z,93855.84
2018-05-16T23:40:20.515Z,93860.81
2018-05-16T23:42:48.928Z,93852.45
2018-05-16T23:45:17.636Z,93848.33
2018-05-16T23:47:48.311Z,93855.24
2018-05-16T23:50:16.687Z,93860.45
2018-05-16T23:52:45.459Z,93859.05
2018-05-16T23:55:13.826Z,93852.40
2018-05-16T23:57:42.178Z,93855.42
